Time;durP1;ratioP1;P1;durP2;ratioP2;P2;SDS_P1;SDS_P2;PMS_P1;PMS_P2;Temp;Humidity;BMP_temperature;BMP_pressure;BME280_temperature;BME280_humidity;BME280_pressure;Samples;Min_cycle;Max_cycle;Signal;HPM_P1;HPM_P2
2022/08/09 00:00:03;;;;;;;5.90;3.60;;;;;;;18.69;52.53;102021.13;855367;23;1100;-90
2022/08/09 00:00:30;;;;;;;5.80;3.60;;;;;;;18.72;52.51;102028.22;856013;23;1180;-89
2022/08/09 00:00:51;;;;;;;4.45;3.65;;;;;;;18.66;52.51;102017.56;843675;23;1085;-89
2022/08/09 00:01:12;;;;;;;5.63;3.30;;;;;;;18.67;52.55;102008.78;843518;23;1189;-90
2022/08/09 00:01:34;;;;;;;7.05;3.28;;;;;;;18.68;52.62;102021.13;855398;23;1310;-89
2022/08/09 00:01:55;;;;;;;6.47;3.20;;;;;;;18.66;52.65;102014.91;847259;23;1945;-90
2022/08/09 00:02:16;;;;;;;5.65;3.30;;;;;;;18.65;52.57;102019.31;847759;23;1130;-90
2022/08/09 00:02:38;;;;;;;4.40;3.30;;;;;;;18.66;52.50;102022.84;844043;23;1248;-90
2022/08/09 00:02:59;;;;;;;4.07;3.60;;;;;;;18.69;52.71;102026.41;840683;23;1223;-90
2022/08/09 00:03:20;;;;;;;4.53;3.60;;;;;;;18.64;52.54;102017.56;839571;23;1262;-90
2022/08/09 00:03:41;;;;;;;4.45;3.58;;;;;;;18.59;52.60;102011.31;848050;23;1260;-90
2022/08/09 00:04:03;;;;;;;6.13;3.63;;;;;;;18.67;52.59;102022.00;851708;23;1271;-90
2022/08/09 00:04:25;;;;;;;5.65;3.63;;;;;;;18.57;52.68;102011.25;851494;23;1186;-89
2022/08/09 00:04:46;;;;;;;5.47;3.58;;;;;;;18.62;52.73;102024.56;840242;23;1066;-89
2022/08/09 00:05:07;;;;;;;5.13;3.30;;;;;;;18.58;52.69;102018.38;839469;23;1222;-90
2022/08/09 00:05:28;;;;;;;4.85;3.58;;;;;;;18.54;52.95;102008.59;844055;23;1219;-90
2022/08/09 00:05:49;;;;;;;4.80;3.60;;;;;;;18.52;52.76;102010.34;844011;23;1319;-89
2022/08/09 00:06:10;;;;;;;4.50;3.70;;;;;;;18.54;52.76;102011.25;835540;23;1336;-90
2022/08/09 00:06:31;;;;;;;4.57;3.50;;;;;;;18.58;52.78;102013.06;843355;23;1082;-90
2022/08/09 00:06:52;;;;;;;4.30;3.40;;;;;;;18.62;52.75;102017.53;839926;23;1302;-90
2022/08/09 00:07:13;;;;;;;3.90;3.40;;;;;;;18.59;52.88;102019.22;847835;23;1450;-89
2022/08/09 00:07:34;;;;;;;3.92;3.45;;;;;;;18.56;52.86;102012.13;855248;23;1096;-90
2022/08/09 00:07:56;;;;;;;3.70;3.30;;;;;;;18.57;52.84;102016.56;839675;23;1122;-90
2022/08/09 00:08:17;;;;;;;7.00;3.28;;;;;;;18.51;53.12;102003.28;843765;23;1201;-89
2022/08/09 00:08:38;;;;;;;7.60;3.58;;;;;;;18.56;53.03;102011.28;852003;23;1081;-90
2022/08/09 00:08:59;;;;;;;7.65;4.00;;;;;;;18.58;53.01;102013.06;839686;23;1131;-90
2022/08/09 00:09:20;;;;;;;4.60;4.20;;;;;;;18.59;52.91;102020.13;839766;23;1343;-90
2022/08/09 00:09:41;;;;;;;4.38;3.97;;;;;;;18.58;52.83;102017.47;847519;23;1121;-90
2022/08/09 00:10:03;;;;;;;4.18;3.78;;;;;;;18.60;52.82;102027.19;843703;23;1197;-90
2022/08/09 00:10:26;;;;;;;4.25;3.78;;;;;;;18.57;52.98;102021.84;843743;23;1215;-89
2022/08/09 00:10:48;;;;;;;4.60;3.80;;;;;;;18.58;53.01;102018.38;852205;23;1460;-89
2022/08/09 00:11:09;;;;;;;4.70;3.70;;;;;;;18.58;52.90;102018.38;843117;23;1310;-90
2022/08/09 00:11:30;;;;;;;4.30;3.90;;;;;;;18.50;52.88;102005.00;835294;23;1208;-90
2022/08/09 00:11:51;;;;;;;4.15;3.85;;;;;;;18.47;53.02;101999.69;843911;23;1354;-90
2022/08/09 00:12:34;;;;;;;4.10;3.80;;;;;;;18.60;53.01;102026.28;843894;23;1149;-90
2022/08/09 00:12:55;;;;;;;6.43;4.10;;;;;;;18.53;52.77;102014.75;843501;23;1334;-89
2022/08/09 00:13:16;;;;;;;6.93;4.50;;;;;;;18.49;53.16;102002.34;839810;23;1179;-89
2022/08/09 00:13:37;;;;;;;7.00;4.30;;;;;;;18.53;53.24;102020.03;835817;23;1176;-90
2022/08/09 00:13:58;;;;;;;5.80;4.10;;;;;;;18.54;53.03;102013.88;839749;23;1309;-89
2022/08/09 00:14:20;;;;;;;5.27;3.70;;;;;;;18.61;52.90;102028.06;851840;23;1218;-90
2022/08/09 00:14:41;;;;;;;5.40;3.80;;;;;;;18.57;53.07;102019.19;851913;23;1300;-90
2022/08/09 00:15:02;;;;;;;4.35;3.95;;;;;;;18.46;53.02;102002.31;847173;23;1283;-90
2022/08/09 00:15:24;;;;;;;5.32;4.00;;;;;;;18.48;52.75;102012.03;843808;23;1223;-89
2022/08/09 00:15:45;;;;;;;5.35;4.10;;;;;;;18.53;52.87;102020.03;843500;23;1141;-89
2022/08/09 00:16:06;;;;;;;4.70;3.78;;;;;;;18.52;52.96;102012.97;847552;23;1208;-90
2022/08/09 00:16:27;;;;;;;3.80;3.50;;;;;;;18.53;53.28;102013.84;844110;23;1284;-90
2022/08/09 00:16:48;;;;;;;3.50;3.20;;;;;;;18.51;53.03;102016.50;849749;23;1257;-90
2022/08/09 00:17:09;;;;;;;4.30;3.40;;;;;;;18.48;53.22;102012.03;845304;23;1348;-90
2022/08/09 00:17:31;;;;;;;4.47;3.45;;;;;;;18.41;53.17;101994.31;844998;23;1417;-90
2022/08/09 00:17:52;;;;;;;4.90;3.63;;;;;;;18.48;53.12;102011.13;851757;23;1239;-89
2022/08/09 00:18:13;;;;;;;3.80;3.40;;;;;;;18.47;52.98;102012.00;847501;23;1177;-89
2022/08/09 00:18:34;;;;;;;3.88;3.58;;;;;;;18.48;53.05;102003.22;843794;23;1200;-90
2022/08/09 00:18:56;;;;;;;3.80;3.50;;;;;;;18.47;53.08;102012.00;847921;23;1259;-90
2022/08/09 00:19:17;;;;;;;4.30;3.80;;;;;;;18.46;53.12;102018.16;843807;23;1356;-90
2022/08/09 00:19:38;;;;;;;6.45;3.95;;;;;;;18.48;52.92;102016.44;843348;23;1254;-90
2022/08/09 00:20:05;;;;;;;7.47;4.50;;;;;;;18.47;53.22;102022.59;843455;23;1119;-90
2022/08/09 00:20:27;;;;;;;5.20;4.32;;;;;;;18.45;53.24;102011.09;856234;23;1154;-90
2022/08/09 00:20:48;;;;;;;5.50;4.13;;;;;;;18.43;53.54;102013.72;851792;23;1072;-90
2022/08/09 00:21:09;;;;;;;5.90;3.90;;;;;;;18.43;53.32;102018.13;843469;23;1272;-90
2022/08/09 00:21:30;;;;;;;8.13;4.10;;;;;;;18.41;53.23;102003.97;851895;23;1300;-90
2022/08/09 00:21:51;;;;;;;7.05;4.00;;;;;;;18.43;53.33;102015.50;843749;23;1956;-90
2022/08/09 00:22:12;;;;;;;6.90;4.00;;;;;;;18.40;53.10;102007.50;839589;23;1448;-90
2022/08/09 00:22:33;;;;;;;5.30;3.90;;;;;;;18.38;53.37;102001.31;839920;23;1331;-90
2022/08/09 00:22:54;;;;;;;5.40;3.90;;;;;;;18.42;53.44;102018.97;843207;23;1236;-89
2022/08/09 00:23:17;;;;;;;4.47;3.70;;;;;;;18.44;53.46;102017.25;843763;23;1261;-90
2022/08/09 00:23:38;;;;;;;4.57;3.90;;;;;;;18.40;53.42;102015.41;851937;23;1320;-89
2022/08/09 00:23:59;;;;;;;5.10;3.97;;;;;;;18.32;53.61;102005.63;851646;23;1207;-90
2022/08/09 00:24:20;;;;;;;6.35;4.40;;;;;;;18.40;53.24;102020.72;839463;23;1351;-90
2022/08/09 00:24:41;;;;;;;6.10;4.28;;;;;;;18.36;53.48;102018.03;844037;23;1318;-90
2022/08/09 00:25:02;;;;;;;4.47;4.00;;;;;;;18.39;53.57;102025.13;847588;23;1103;-90
2022/08/09 00:25:24;;;;;;;4.30;3.90;;;;;;;18.34;53.58;102011.81;847795;23;1212;-90
2022/08/09 00:25:45;;;;;;;9.60;4.70;;;;;;;18.33;53.65;102017.97;848017;23;1264;-89
2022/08/09 00:26:06;;;;;;;10.65;4.85;;;;;;;18.39;53.65;102026.88;851450;23;1359;-90
2022/08/09 00:26:29;;;;;;;10.95;4.55;;;;;;;18.33;53.87;102017.09;843306;23;1168;-89
2022/08/09 00:26:51;;;;;;;6.65;4.35;;;;;;;18.34;53.79;102019.75;839695;23;1251;-90
2022/08/09 00:27:12;;;;;;;5.15;4.05;;;;;;;18.28;53.64;102009.09;843463;23;1282;-90
2022/08/09 00:27:33;;;;;;;4.60;4.00;;;;;;;18.25;53.58;102008.16;843791;23;1362;-90
2022/08/09 00:27:54;;;;;;;4.10;3.60;;;;;;;18.33;53.76;102017.97;841983;23;1259;-89
2022/08/09 00:28:15;;;;;;;4.72;3.80;;;;;;;18.27;53.81;102017.00;847838;23;1195;-89
2022/08/09 00:28:36;;;;;;;6.30;3.80;;;;;;;18.23;53.84;102010.75;851454;23;1088;-89
2022/08/09 00:28:58;;;;;;;5.90;3.80;;;;;;;18.21;53.79;102001.94;847554;23;1165;-90
2022/08/09 00:29:19;;;;;;;5.60;3.80;;;;;;;18.26;53.96;102016.09;843817;23;1364;-90
2022/08/09 00:29:40;;;;;;;4.43;3.85;;;;;;;18.25;53.81;102016.09;847450;23;1239;-90
2022/08/09 00:30:01;;;;;;;6.10;4.03;;;;;;;18.27;53.97;102019.63;842394;23;1374;-90
2022/08/09 00:30:23;;;;;;;7.13;4.32;;;;;;;18.21;53.99;102002.81;843500;23;1331;-90
2022/08/09 00:30:44;;;;;;;6.18;4.03;;;;;;;18.22;53.89;102009.88;848036;23;1148;-90
2022/08/09 00:31:05;;;;;;;5.13;3.95;;;;;;;18.24;53.92;102011.66;847677;23;1336;-90
2022/08/09 00:31:26;;;;;;;4.10;3.70;;;;;;;18.26;54.01;102024.00;843832;23;1096;-90
2022/08/09 00:31:47;;;;;;;4.30;3.90;;;;;;;18.21;53.96;102009.88;843710;23;1184;-90
2022/08/09 00:32:08;;;;;;;4.22;3.80;;;;;;;18.23;54.15;102008.13;847463;23;1188;-89
2022/08/09 00:32:30;;;;;;;4.40;4.00;;;;;;;18.15;54.15;102001.84;846809;23;1093;-89
2022/08/09 00:32:51;;;;;;;5.13;4.05;;;;;;;18.17;54.03;102005.38;839707;23;1252;-89
2022/08/09 00:33:12;;;;;;;5.30;4.00;;;;;;;18.21;54.17;102012.50;843731;23;1200;-89
2022/08/09 00:33:34;;;;;;;6.00;4.00;;;;;;;18.21;54.15;102012.50;852015;23;1179;-90
2022/08/09 00:33:56;;;;;;;5.30;4.00;;;;;;;18.19;54.17;102014.25;843135;23;1369;-90
2022/08/09 00:34:17;;;;;;;5.22;3.95;;;;;;;18.21;54.17;102018.66;843732;23;1320;-90
2022/08/09 00:34:41;;;;;;;5.32;3.80;;;;;;;18.17;54.13;102015.94;852066;23;1140;-90
2022/08/09 00:35:02;;;;;;;6.43;4.10;;;;;;;18.23;54.27;102023.97;847356;23;1303;-90
2022/08/09 00:35:23;;;;;;;6.72;4.15;;;;;;;18.19;54.29;102016.88;847860;23;1199;-90
2022/08/09 00:35:45;;;;;;;6.20;3.95;;;;;;;18.17;54.20;102018.59;839718;23;1117;-89
2022/08/09 00:36:06;;;;;;;5.65;4.00;;;;;;;18.19;54.17;102025.69;842523;23;1126;-89
2022/08/09 00:36:28;;;;;;;4.32;3.80;;;;;;;18.18;54.27;102018.63;846137;23;1259;-90
2022/08/09 00:36:49;;;;;;;6.07;4.10;;;;;;;18.09;54.32;102003.47;847873;23;1298;-89
2022/08/09 00:37:10;;;;;;;5.50;4.10;;;;;;;18.14;54.21;102015.88;847466;23;1191;-90
2022/08/09 00:37:32;;;;;;;6.80;4.35;;;;;;;18.21;54.34;102020.44;848036;23;1301;-89
2022/08/09 00:37:53;;;;;;;5.65;4.22;;;;;;;18.13;54.22;102014.09;847709;23;1272;-90
2022/08/09 00:38:14;;;;;;;6.28;4.13;;;;;;;18.12;54.34;102004.41;843648;23;1406;-90
2022/08/09 00:38:36;;;;;;;6.40;4.00;;;;;;;18.17;54.34;102015.94;847422;23;1239;-90
2022/08/09 00:38:57;;;;;;;6.03;3.65;;;;;;;18.15;54.27;102017.69;843404;23;1106;-89
2022/08/09 00:39:19;;;;;;;5.75;3.85;;;;;;;18.15;54.29;102013.31;843850;23;1220;-89
2022/08/09 00:39:40;;;;;;;4.50;3.80;;;;;;;18.11;54.63;102005.25;851234;23;1233;-89
2022/08/09 00:40:01;;;;;;;4.50;4.10;;;;;;;18.18;54.36;102023.00;855352;23;1056;-90
2022/08/09 00:40:22;;;;;;;4.60;4.20;;;;;;;18.13;54.47;102008.81;839889;23;1205;-89
2022/08/09 00:40:44;;;;;;;5.10;4.20;;;;;;;18.15;54.28;102018.59;843871;23;1267;-89
2022/08/09 00:41:06;;;;;;;5.35;4.00;;;;;;;18.19;54.23;102030.09;851632;23;1322;-89
2022/08/09 00:41:27;;;;;;;6.03;4.00;;;;;;;18.11;54.50;102016.72;847766;23;1293;-89
2022/08/09 00:41:48;;;;;;;5.63;4.10;;;;;;;18.13;54.43;102017.63;851536;23;1913;-90
2022/08/09 00:42:09;;;;;;;5.53;4.20;;;;;;;18.08;54.48;102012.25;847496;23;1130;-89
2022/08/09 00:42:30;;;;;;;5.95;4.10;;;;;;;18.09;54.54;102016.66;847182;23;1206;-89
2022/08/09 00:42:51;;;;;;;5.70;4.28;;;;;;;18.14;54.67;102023.81;847061;23;1321;-90
2022/08/09 00:43:12;;;;;;;5.47;4.47;;;;;;;18.09;54.71;102019.31;843493;23;1281;-90
2022/08/09 00:43:36;;;;;;;5.90;4.88;;;;;;;18.06;54.67;102011.34;847922;23;1191;-90
2022/08/09 00:43:57;;;;;;;5.60;4.60;;;;;;;18.10;54.61;102017.56;847364;23;1266;-90
2022/08/09 00:44:18;;;;;;;5.03;4.45;;;;;;;18.05;54.69;102009.56;843657;23;1242;-90
2022/08/09 00:44:40;;;;;;;4.60;4.20;;;;;;;18.09;54.60;102019.31;847717;23;1432;-90
2022/08/09 00:45:03;;;;;;;4.70;4.30;;;;;;;18.14;54.71;102022.06;847099;23;1268;-90
2022/08/09 00:45:24;;;;;;;5.00;4.50;;;;;;;18.04;54.86;102015.72;839848;23;1196;-89
2022/08/09 00:46:04;;;;;;;4.95;4.45;;;;;;;18.08;54.69;102024.59;839657;23;1280;-89
2022/08/09 00:46:25;;;;;;;5.40;4.05;;;;;;;18.05;54.72;102019.25;847042;23;1354;-89
2022/08/09 00:46:46;;;;;;;6.10;4.10;;;;;;;18.04;54.58;102015.72;839630;23;1471;-90
2022/08/09 00:47:07;;;;;;;7.10;4.03;;;;;;;18.06;54.69;102018.38;843737;23;1163;-90
2022/08/09 00:47:28;;;;;;;6.55;3.85;;;;;;;18.02;54.72;102022.72;843631;23;1020;-89
2022/08/09 00:47:49;;;;;;;6.80;3.75;;;;;;;18.00;54.79;102020.94;839661;23;1046;-90
2022/08/09 00:48:10;;;;;;;6.35;3.80;;;;;;;18.01;54.86;102020.94;847444;23;1330;-90
2022/08/09 00:48:31;;;;;;;4.90;4.15;;;;;;;18.00;54.79;102018.28;851810;23;1323;-90
2022/08/09 00:48:52;;;;;;;4.63;4.22;;;;;;;18.01;54.98;102014.78;847535;23;1331;-89
2022/08/09 00:49:13;;;;;;;4.65;4.25;;;;;;;17.92;55.09;102004.94;847683;23;1235;-90
2022/08/09 00:49:35;;;;;;;4.43;4.00;;;;;;;17.98;55.11;102014.72;847399;23;1204;-90
2022/08/09 00:49:56;;;;;;;4.65;3.95;;;;;;;17.92;55.00;102008.50;847009;23;1432;-89
2022/08/09 00:50:18;;;;;;;4.65;4.13;;;;;;;17.97;55.03;102018.22;847831;23;1132;-89
2022/08/09 00:50:39;;;;;;;4.85;4.35;;;;;;;17.99;55.06;102020.03;856014;23;1341;-89
2022/08/09 00:51:07;;;;;;;5.07;4.32;;;;;;;17.97;55.11;102013.84;844148;23;1273;-90
2022/08/09 00:51:29;;;;;;;7.13;4.43;;;;;;;17.96;54.98;102012.06;846954;23;1457;-89
2022/08/09 00:51:50;;;;;;;9.77;4.70;;;;;;;17.97;55.13;102011.22;835413;23;1235;-89
2022/08/09 00:52:11;;;;;;;10.85;4.80;;;;;;;17.99;54.91;102012.09;847456;23;1185;-90
2022/08/09 00:52:32;;;;;;;8.02;4.53;;;;;;;17.99;55.14;102017.41;843936;23;1326;-90
2022/08/09 00:52:53;;;;;;;7.25;4.10;;;;;;;18.02;55.02;102022.72;839448;23;1212;-89
2022/08/09 00:53:16;;;;;;;6.38;4.30;;;;;;;17.93;55.11;102006.72;852086;23;1336;-89
2022/08/09 00:53:38;;;;;;;6.20;4.35;;;;;;;17.98;54.97;102010.34;843760;23;1299;-89
2022/08/09 00:53:59;;;;;;;5.53;4.13;;;;;;;17.99;55.28;102011.22;839389;23;1351;-89
2022/08/09 00:54:21;;;;;;;5.40;4.10;;;;;;;17.99;55.05;102011.22;843775;23;1177;-90
2022/08/09 00:54:42;;;;;;;4.90;4.20;;;;;;;17.97;55.25;102015.59;843762;23;1346;-90
2022/08/09 00:55:03;;;;;;;5.45;4.07;;;;;;;18.05;55.13;102017.50;847558;23;1183;-90
2022/08/09 00:55:24;;;;;;;5.05;4.15;;;;;;;17.95;55.04;102005.00;836004;23;1302;-90
2022/08/09 00:55:46;;;;;;;4.82;4.18;;;;;;;17.93;55.30;102004.06;846801;23;1080;-90
2022/08/09 00:56:07;;;;;;;5.00;4.07;;;;;;;18.01;55.25;102014.78;855869;23;1185;-90
2022/08/09 00:56:29;;;;;;;5.45;3.92;;;;;;;17.99;55.09;102021.78;843331;23;1370;-90
2022/08/09 00:56:50;;;;;;;5.57;3.90;;;;;;;18.04;55.12;102025.38;851976;23;1324;-90
2022/08/09 00:57:12;;;;;;;7.85;4.40;;;;;;;18.01;55.04;102020.94;851405;23;1266;-90
2022/08/09 00:57:33;;;;;;;7.00;4.50;;;;;;;18.01;55.31;102023.59;839585;23;1238;-89
2022/08/09 00:57:54;;;;;;;7.72;4.75;;;;;;;17.94;55.26;102009.41;843028;23;1204;-89
2022/08/09 00:58:15;;;;;;;5.90;4.45;;;;;;;17.95;55.19;102015.59;855998;23;1339;-90
2022/08/09 00:58:37;;;;;;;5.82;4.30;;;;;;;17.88;55.30;101997.84;843466;23;1267;-89
2022/08/09 00:58:58;;;;;;;4.90;4.00;;;;;;;17.95;55.32;102011.16;847304;23;1257;-89
2022/08/09 00:59:19;;;;;;;4.50;4.00;;;;;;;17.93;55.29;102012.00;851049;23;1244;-90
2022/08/09 00:59:42;;;;;;;4.70;4.20;;;;;;;17.95;55.47;102016.44;843153;23;1298;-89
2022/08/09 01:00:08;;;;;;;4.80;4.30;;;;;;;17.94;55.61;102013.78;843611;23;1327;-90
2022/08/09 01:00:29;;;;;;;5.10;4.30;;;;;;;17.87;55.29;102004.88;847646;23;1429;-89
2022/08/09 01:00:53;;;;;;;5.30;4.30;;;;;;;17.93;55.31;102009.34;847637;23;1230;-89
2022/08/09 01:01:19;;;;;;;5.00;4.10;;;;;;;17.92;55.34;102012.88;843835;23;1141;-89
2022/08/09 01:01:41;;;;;;;4.40;4.00;;;;;;;17.91;55.50;102009.34;843759;23;1315;-90
2022/08/09 01:02:02;;;;;;;4.65;4.00;;;;;;;17.91;55.44;102005.81;851880;23;1317;-89
2022/08/09 01:02:29;;;;;;;5.22;4.40;;;;;;;17.92;55.50;102010.22;847379;23;1310;-90
2022/08/09 01:03:00;;;;;;;5.95;4.50;;;;;;;17.90;55.44;102004.03;855637;23;1256;-89
2022/08/09 01:03:44;;;;;;;5.00;4.20;;;;;;;17.98;55.54;102020.00;839653;23;1250;-90
2022/08/09 01:04:27;;;;;;;6.38;4.10;;;;;;;17.89;55.55;102005.78;843251;23;1208;-90
2022/08/09 01:04:59;;;;;;;4.85;4.35;;;;;;;17.95;55.33;102023.50;852043;23;1085;-90
2022/08/09 01:05:47;;;;;;;4.75;4.30;;;;;;;17.88;55.79;102003.13;843964;23;1373;-90
2022/08/09 01:06:29;;;;;;;4.70;4.20;;;;;;;17.93;55.66;102022.56;839478;23;1137;-89
2022/08/09 01:07:02;;;;;;;4.78;4.30;;;;;;;17.87;55.75;102012.78;844023;23;1296;-90
2022/08/09 01:07:35;;;;;;;5.07;4.57;;;;;;;17.92;55.76;102015.50;839952;23;1266;-90
2022/08/09 01:08:04;;;;;;;4.90;4.40;;;;;;;17.77;55.79;101995.88;847536;23;1402;-90
2022/08/09 01:08:39;;;;;;;4.50;4.10;;;;;;;17.81;55.83;102000.38;851904;23;1457;-90
2022/08/09 01:09:29;;;;;;;4.85;4.03;;;;;;;17.86;55.87;102010.13;839351;23;1410;-89
2022/08/09 01:10:02;;;;;;;5.68;4.00;;;;;;;17.82;55.88;102003.88;843151;23;1284;-89
2022/08/09 01:10:49;;;;;;;6.30;4.20;;;;;;;17.84;55.77;102014.50;847844;23;1207;-90
2022/08/09 01:11:38;;;;;;;6.03;4.43;;;;;;;17.86;55.90;102018.03;847163;23;1381;-90
2022/08/09 01:12:11;;;;;;;4.75;4.00;;;;;;;17.87;55.86;102017.16;843460;23;1211;-89
2022/08/09 01:13:25;;;;;;;5.57;4.00;;;;;;;17.86;56.12;102021.56;843574;23;1466;-89
2022/08/09 01:13:58;;;;;;;6.00;4.30;;;;;;;17.82;55.84;102014.44;835814;23;1246;-90
2022/08/09 01:14:22;;;;;;;5.95;4.10;;;;;;;17.84;56.10;102017.13;831657;23;1391;-90
2022/08/09 01:14:46;;;;;;;4.35;3.83;;;;;;;17.78;55.91;102005.59;831847;23;1259;-89
2022/08/09 01:15:11;;;;;;;5.55;4.03;;;;;;;17.78;56.01;102005.59;839264;23;1333;-89
2022/08/09 01:15:38;;;;;;;5.45;4.05;;;;;;;17.77;55.97;102013.50;843795;23;1384;-89
2022/08/09 01:16:02;;;;;;;4.82;3.90;;;;;;;17.74;56.03;102000.22;842965;23;1140;-89
2022/08/09 01:16:29;;;;;;;5.22;3.85;;;;;;;17.74;56.21;102005.50;834703;23;1213;-89
2022/08/09 01:17:06;;;;;;;4.45;3.85;;;;;;;17.75;56.21;102012.56;839169;23;1117;-89
2022/08/09 01:17:36;;;;;;;5.65;4.35;;;;;;;17.71;56.15;102006.38;836011;23;1338;-89
2022/08/09 01:18:02;;;;;;;5.93;4.30;;;;;;;17.68;56.38;102007.19;835131;23;1357;-89
2022/08/09 01:18:29;;;;;;;4.47;3.90;;;;;;;17.68;56.16;102004.56;835462;23;1232;-89
2022/08/09 01:18:53;;;;;;;4.20;3.80;;;;;;;17.63;56.39;101994.75;831694;23;1330;-89
2022/08/09 01:19:32;;;;;;;4.68;4.20;;;;;;;17.69;56.34;102013.34;835522;23;1121;-89
2022/08/09 01:20:17;;;;;;;4.63;4.00;;;;;;;17.70;56.41;102020.41;847123;23;1307;-89
2022/08/09 01:20:59;;;;;;;5.55;4.05;;;;;;;17.72;56.46;102015.16;847778;23;1283;-89
2022/08/09 01:21:43;;;;;;;5.35;3.92;;;;;;;17.67;56.58;102020.34;839648;23;1289;-89
2022/08/09 01:22:48;;;;;;;5.13;4.10;;;;;;;17.63;56.44;102007.94;847069;23;1172;-90
2022/08/09 01:23:21;;;;;;;6.85;4.18;;;;;;;17.61;56.60;102004.41;835193;23;1207;-89
2022/08/09 01:23:59;;;;;;;7.57;4.05;;;;;;;17.67;56.65;102018.63;827324;23;1269;-89
2022/08/09 01:25:08;;;;;;;5.43;4.00;;;;;;;17.62;56.78;102015.00;831402;23;1306;-89
2022/08/09 01:25:47;;;;;;;4.68;3.70;;;;;;;17.68;56.82;102027.41;823775;24;1333;-90
2022/08/09 01:26:34;;;;;;;6.50;4.10;;;;;;;17.70;56.62;102028.31;830716;23;1185;-89
2022/08/09 01:27:17;;;;;;;5.43;3.83;;;;;;;17.68;56.76;102020.41;835182;23;1165;-89
2022/08/09 01:27:40;;;;;;;5.82;4.10;;;;;;;17.61;56.78;102014.97;843783;23;1287;-89
2022/08/09 01:28:04;;;;;;;5.60;4.25;;;;;;;17.60;56.62;102013.19;843355;23;1388;-89
2022/08/09 01:28:26;;;;;;;4.55;4.05;;;;;;;17.69;56.90;102029.19;847771;23;1199;-90
2022/08/09 01:28:50;;;;;;;4.70;4.00;;;;;;;17.64;56.79;102017.66;843865;23;1370;-89
2022/08/09 01:29:13;;;;;;;4.70;4.00;;;;;;;17.59;56.57;102004.41;848072;23;1283;-89
2022/08/09 01:29:43;;;;;;;4.63;4.00;;;;;;;17.63;57.01;102021.16;847283;23;1443;-89
2022/08/09 01:30:07;;;;;;;4.70;4.10;;;;;;;17.64;56.83;102020.31;843065;23;1354;-89
2022/08/09 01:30:31;;;;;;;6.15;4.40;;;;;;;17.55;57.01;102005.19;851409;23;1240;-89
2022/08/09 01:30:56;;;;;;;6.65;4.28;;;;;;;17.56;56.88;102009.59;843102;23;1207;-89
2022/08/09 01:31:25;;;;;;;4.95;4.22;;;;;;;17.58;56.85;102012.28;839597;23;1314;-89
2022/08/09 01:31:47;;;;;;;5.05;4.30;;;;;;;17.59;56.84;102011.41;852134;23;1320;-89
2022/08/09 01:32:12;;;;;;;4.40;3.97;;;;;;;17.61;57.17;102018.50;851613;23;1112;-89
2022/08/09 01:32:45;;;;;;;6.05;3.97;;;;;;;17.64;56.97;102029.09;847827;23;1330;-89
2022/08/09 01:33:08;;;;;;;6.63;4.20;;;;;;;17.62;57.01;102020.28;843185;23;1317;-89
2022/08/09 01:33:35;;;;;;;5.38;4.20;;;;;;;17.62;56.93;102022.00;847431;23;1364;-89
2022/08/09 01:34:01;;;;;;;5.15;4.25;;;;;;;17.61;57.03;102021.13;843142;23;1269;-89
2022/08/09 01:34:26;;;;;;;5.60;4.65;;;;;;;17.60;57.04;102021.09;843292;23;1299;-89
2022/08/09 01:34:49;;;;;;;6.18;4.68;;;;;;;17.64;57.08;102020.31;841852;23;1173;-89
2022/08/09 01:35:21;;;;;;;6.25;4.60;;;;;;;17.56;57.16;102016.63;851153;23;1187;-89
2022/08/09 01:36:02;;;;;;;4.93;4.38;;;;;;;17.63;57.23;102029.97;843651;23;1244;-89
2022/08/09 01:36:25;;;;;;;6.00;4.25;;;;;;;17.54;57.28;102009.56;839199;23;1161;-89
2022/08/09 01:36:48;;;;;;;6.47;4.20;;;;;;;17.57;57.25;102021.06;847778;23;1291;-89
2022/08/09 01:37:13;;;;;;;5.28;4.18;;;;;;;17.58;57.16;102020.19;851761;23;1220;-89
2022/08/09 01:37:38;;;;;;;4.40;4.00;;;;;;;17.57;57.08;102021.06;846409;23;1414;-90
2022/08/09 01:38:03;;;;;;;4.38;3.97;;;;;;;17.52;57.13;102011.28;835320;23;1173;-90
2022/08/09 01:38:28;;;;;;;4.82;4.18;;;;;;;17.57;57.24;102015.78;847676;23;1414;-90
2022/08/09 01:38:51;;;;;;;5.35;4.30;;;;;;;17.60;57.10;102024.66;850962;23;1247;-90
2022/08/09 01:39:15;;;;;;;5.20;4.28;;;;;;;17.49;57.29;102007.69;843572;23;1494;-90
2022/08/09 01:39:38;;;;;;;4.65;4.15;;;;;;;17.51;57.32;102012.16;847207;23;1305;-90
2022/08/09 01:40:03;;;;;;;5.20;4.47;;;;;;;17.50;57.29;102010.38;842989;23;1223;-89
2022/08/09 01:40:27;;;;;;;5.43;4.55;;;;;;;17.51;57.38;102017.44;838499;23;1328;-90
2022/08/09 01:41:30;;;;;;;7.80;4.60;;;;;;;17.57;57.50;102021.06;843688;23;1199;-89
2022/08/09 01:41:52;;;;;;;6.60;4.40;;;;;;;17.60;57.52;102021.09;842586;23;1904;-89
2022/08/09 01:42:15;;;;;;;5.72;4.43;;;;;;;17.52;57.69;102011.28;839234;23;1438;-89
2022/08/09 01:42:37;;;;;;;4.90;4.40;;;;;;;17.64;57.60;102026.47;826549;23;1288;-89
2022/08/09 01:42:59;;;;;;;22.85;4.53;;;;;;;17.59;57.65;102016.69;831416;23;1282;-89
2022/08/09 01:43:23;;;;;;;23.42;4.80;;;;;;;17.59;57.50;102022.88;838215;23;1090;-90
2022/08/09 01:43:48;;;;;;;18.77;4.70;;;;;;;17.60;57.39;102023.75;835808;23;1203;-90
2022/08/09 01:44:13;;;;;;;5.20;4.70;;;;;;;17.57;57.45;102018.41;835632;23;1273;-90
2022/08/09 01:44:35;;;;;;;5.10;4.60;;;;;;;17.52;57.51;102013.06;835810;23;1168;-90
2022/08/09 01:44:57;;;;;;;5.13;4.63;;;;;;;17.55;57.57;102018.38;831145;23;1364;-90
2022/08/09 01:45:19;;;;;;;5.20;4.70;;;;;;;17.53;57.64;102018.34;839555;23;1355;-89
2022/08/09 01:45:42;;;;;;;6.30;4.60;;;;;;;17.48;57.64;102009.47;839636;23;1213;-90
2022/08/09 01:46:04;;;;;;;6.03;4.35;;;;;;;17.57;57.67;102028.97;827335;23;1181;-90
2022/08/09 01:46:29;;;;;;;6.22;4.50;;;;;;;17.50;57.65;102017.38;831372;23;1303;-90
2022/08/09 01:46:53;;;;;;;5.38;4.50;;;;;;;17.54;57.73;102021.88;827576;23;1369;-89
2022/08/09 01:47:15;;;;;;;6.20;4.60;;;;;;;17.54;57.76;102025.38;835908;23;1304;-89
2022/08/09 01:47:39;;;;;;;5.30;4.30;;;;;;;17.52;57.61;102024.47;839215;23;1210;-89
2022/08/09 01:48:03;;;;;;;5.32;4.35;;;;;;;17.49;57.56;102019.16;843103;23;1323;-90
2022/08/09 01:48:26;;;;;;;5.30;4.20;;;;;;;17.44;58.02;102012.88;847769;23;1383;-90
2022/08/09 01:48:52;;;;;;;5.18;4.20;;;;;;;17.47;57.75;102015.59;843652;23;1335;-90
2022/08/09 01:49:18;;;;;;;6.75;4.32;;;;;;;17.40;57.83;102005.78;843420;23;1341;-89
2022/08/09 01:49:41;;;;;;;5.55;4.30;;;;;;;17.46;57.84;102021.72;847269;23;1384;-89
2022/08/09 01:50:03;;;;;;;4.90;4.32;;;;;;;17.48;57.82;102024.41;843348;23;1200;-90
2022/08/09 01:50:26;;;;;;;5.32;4.72;;;;;;;17.44;58.10;102023.44;843636;23;1259;-89
2022/08/09 01:50:51;;;;;;;5.25;4.72;;;;;;;17.41;57.92;102018.13;839750;23;1195;-89
2022/08/09 01:51:14;;;;;;;5.18;4.47;;;;;;;17.44;57.91;102017.28;842246;23;1315;-90
2022/08/09 01:51:42;;;;;;;5.20;4.60;;;;;;;17.43;57.93;102019.03;847946;23;1231;-89
2022/08/09 01:52:08;;;;;;;4.70;4.30;;;;;;;17.44;58.13;102023.44;851184;23;1383;-89
2022/08/09 01:52:31;;;;;;;4.68;4.28;;;;;;;17.38;58.13;102018.03;843777;23;1207;-90
2022/08/09 01:52:55;;;;;;;5.10;4.30;;;;;;;17.40;58.12;102021.63;854696;23;1296;-89
2022/08/09 01:53:18;;;;;;;5.53;4.30;;;;;;;17.43;58.12;102026.94;847815;23;1328;-89
2022/08/09 01:53:42;;;;;;;5.93;4.20;;;;;;;17.41;58.23;102020.75;847746;23;1349;-89
2022/08/09 01:54:05;;;;;;;6.80;4.40;;;;;;;17.38;58.30;102020.69;847114;23;1286;-89
2022/08/09 01:54:33;;;;;;;6.00;4.30;;;;;;;17.39;58.32;102019.81;843454;23;1451;-89
2022/08/09 01:54:57;;;;;;;5.07;4.45;;;;;;;17.39;58.58;102023.34;838430;23;1200;-90
2022/08/09 01:57:14;;;;;;;6.90;4.88;;;;;;;17.36;58.56;102019.78;855527;23;1177;-90
2022/08/09 01:57:41;;;;;;;4.68;4.18;;;;;;;17.36;58.51;102025.03;855181;23;1235;-89
2022/08/09 01:58:04;;;;;;;5.57;4.45;;;;;;;17.29;58.57;102008.22;843196;23;1100;-90
2022/08/09 01:58:26;;;;;;;6.32;4.70;;;;;;;17.29;58.74;102007.31;851894;23;1207;-90
2022/08/09 01:58:50;;;;;;;5.50;4.57;;;;;;;17.35;58.64;102020.63;851948;23;1318;-89
2022/08/09 01:59:14;;;;;;;4.95;4.35;;;;;;;17.28;58.63;102011.72;843380;23;1306;-89
2022/08/09 01:59:38;;;;;;;5.40;4.60;;;;;;;17.33;58.64;102019.72;851335;23;1298;-89
2022/08/09 02:00:02;;;;;;;5.13;4.60;;;;;;;17.34;58.65;102021.50;851161;23;1395;-89